Riverdale, Iowa
Current Conditions -  °F | °C
As of 11:52 AM on Thursday 18 Dec 2014 (Local Time) from KDVN Reporting Station
Broken Clouds Broken Clouds  
Wind Chill: 24°   Ceiling: 10000
Heat Index: 24°   Visibility: 10mi
Dew Point: 18°   Wind: 3mph
Humidity: 77%   Direction: 280°W
Pressure: 30.28"   Gusts: NA
Location:  41.5718°N, 90.4678°W
Report Text: KDVN 181752Z AUTO 28003KT 10SM BKN100 M04/M08 A3028 RMK AO2 SLP267 T10441078 11044 21089 58009
Loading
Personal Weather Stations






























Interactive Weather Map New forecast layout! Learn more

10-Day Weather Forecast

Advertisements
Track Severe Weather on mobile